createdAt,value
2023-05-10T00:02:30.656Z,54.93
2023-05-10T00:05:03.175Z,54.78
2023-05-10T00:07:34.990Z,54.60
2023-05-10T00:10:07.973Z,54.79
2023-05-10T00:12:41.913Z,55.05
2023-05-10T00:15:13.640Z,54.70
2023-05-10T00:17:45.441Z,54.63
2023-05-10T00:20:17.683Z,55.25
2023-05-10T00:22:49.774Z,55.21
2023-05-10T00:25:24.102Z,54.97
2023-05-10T00:27:58.975Z,55.50
2023-05-10T00:30:30.834Z,55.38
2023-05-10T00:33:04.596Z,55.49
2023-05-10T00:35:36.328Z,55.53
2023-05-10T00:38:08.117Z,55.42
2023-05-10T00:40:39.948Z,55.80
2023-05-10T00:43:17.752Z,56.14
2023-05-10T00:45:49.714Z,56.04
2023-05-10T00:48:22.847Z,56.19
2023-05-10T00:50:54.559Z,56.01
2023-05-10T00:53:26.627Z,55.66
2023-05-10T00:55:58.440Z,56.42
2023-05-10T00:58:31.945Z,56.48
2023-05-10T01:01:05.440Z,55.92
2023-05-10T01:03:40.166Z,56.66
2023-05-10T01:06:12.280Z,56.38
2023-05-10T01:08:44.160Z,56.47
2023-05-10T01:11:17.281Z,56.42
2023-05-10T01:13:55.923Z,56.32
2023-05-10T01:16:28.680Z,56.73
2023-05-10T01:19:00.571Z,56.52
2023-05-10T01:22:06.129Z,56.76
2023-05-10T01:24:50.001Z,57.46
2023-05-10T01:27:49.006Z,56.83
2023-05-10T01:30:39.554Z,57.35
2023-05-10T01:33:25.742Z,57.82
2023-05-10T01:36:36.164Z,57.64
2023-05-10T01:39:33.675Z,57.56
2023-05-10T01:42:11.469Z,57.75
2023-05-10T01:44:54.751Z,57.88
2023-05-10T01:47:41.464Z,58.26
2023-05-10T01:50:33.497Z,58.38
2023-05-10T01:53:08.559Z,58.04
2023-05-10T01:55:50.196Z,58.65
2023-05-10T01:58:30.761Z,58.90
2023-05-10T02:01:05.642Z,59.07
2023-05-10T02:03:39.668Z,58.50
2023-05-10T02:06:13.897Z,59.09
2023-05-10T02:08:47.737Z,58.27
2023-05-10T02:11:22.505Z,58.54
2023-05-10T02:13:54.973Z,58.93
2023-05-10T02:16:32.632Z,58.49
2023-05-10T02:19:07.000Z,58.95
2023-05-10T02:21:41.272Z,59.51
2023-05-10T02:24:14.079Z,59.94
2023-05-10T02:26:48.436Z,60.12
2023-05-10T02:29:21.042Z,59.90
2023-05-10T02:31:55.145Z,60.19
2023-05-10T02:34:28.726Z,60.14
2023-05-10T02:37:01.910Z,60.35
2023-05-10T02:39:34.087Z,60.62
2023-05-10T02:42:06.575Z,60.72
2023-05-10T02:44:40.406Z,61.21
2023-05-10T02:47:13.234Z,61.11
2023-05-10T02:49:45.186Z,60.66
2023-05-10T02:52:26.676Z,61.11
2023-05-10T02:55:04.140Z,61.04
2023-05-10T02:57:39.938Z,61.39
2023-05-10T03:00:12.647Z,61.14
2023-05-10T03:02:44.434Z,61.20
2023-05-10T03:05:16.415Z,61.48
2023-05-10T03:07:49.234Z,61.73
2023-05-10T03:10:27.838Z,61.89
2023-05-10T03:13:01.371Z,61.79
2023-05-10T03:15:53.221Z,61.42
2023-05-10T03:19:09.123Z,61.52
2023-05-10T03:21:45.866Z,61.69
2023-05-10T03:24:19.807Z,61.73
2023-05-10T03:26:57.955Z,62.31
2023-05-10T03:29:34.380Z,62.20
2023-05-10T03:32:06.200Z,62.52
2023-05-10T03:34:43.766Z,62.39
2023-05-10T03:37:15.995Z,62.06
2023-05-10T03:39:48.062Z,62.11
2023-05-10T03:42:20.265Z,62.83
2023-05-10T03:44:52.448Z,62.76
2023-05-10T03:47:24.423Z,63.30
2023-05-10T03:49:56.673Z,62.53
2023-05-10T03:52:28.425Z,62.96
2023-05-10T03:55:01.060Z,63.38
2023-05-10T03:57:33.284Z,62.97
2023-05-10T04:00:05.862Z,63.26
2023-05-10T04:02:46.524Z,62.91
2023-05-10T04:05:23.636Z,62.41
2023-05-10T04:08:00.496Z,62.75
2023-05-10T04:10:33.147Z,63.13
2023-05-10T04:13:05.202Z,62.37
2023-05-10T04:15:37.446Z,62.92
2023-05-10T04:18:13.052Z,62.57
2023-05-10T04:20:44.842Z,61.86
2023-05-10T04:23:21.187Z,62.70
2023-05-10T04:25:52.917Z,62.01
2023-05-10T04:28:24.647Z,61.92
2023-05-10T04:31:10.180Z,61.48
2023-05-10T04:33:41.995Z,61.22
2023-05-10T04:36:15.026Z,61.23
2023-05-10T04:38:46.799Z,60.51
2023-05-10T04:41:18.605Z,60.59
2023-05-10T04:43:50.534Z,60.45
2023-05-10T04:46:22.281Z,60.02
2023-05-10T04:48:54.103Z,59.47
2023-05-10T04:51:25.935Z,59.91
2023-05-10T04:54:06.047Z,59.55
2023-05-10T04:56:38.534Z,59.17
2023-05-10T04:59:10.597Z,58.35
2023-05-10T05:01:42.402Z,57.90
2023-05-10T05:04:15.667Z,57.90
2023-05-10T05:06:47.407Z,56.99
2023-05-10T05:09:19.284Z,57.19
2023-05-10T05:11:51.197Z,56.64
2023-05-10T05:14:28.749Z,56.49
2023-05-10T05:17:00.554Z,56.16
2023-05-10T05:19:32.864Z,56.19
2023-05-10T05:22:04.700Z,55.84
2023-05-10T05:24:39.524Z,55.43
2023-05-10T05:27:11.594Z,54.67
2023-05-10T05:29:43.315Z,54.20
2023-05-10T05:32:15.075Z,53.39
2023-05-10T05:34:47.056Z,52.39
2023-05-10T05:37:20.638Z,52.51
2023-05-10T05:39:56.019Z,52.34
2023-05-10T05:42:28.458Z,51.71
2023-05-10T05:45:00.268Z,50.98
2023-05-10T05:47:32.173Z,50.64
2023-05-10T05:50:06.747Z,49.81
2023-05-10T05:52:38.507Z,49.54
2023-05-10T05:55:10.223Z,49.40
2023-05-10T05:57:42.091Z,49.11
2023-05-10T06:00:14.440Z,48.84
2023-05-10T06:02:46.323Z,48.31
2023-05-10T06:05:18.444Z,47.55
2023-05-10T06:07:50.362Z,47.05
2023-05-10T06:10:22.163Z,46.58
2023-05-10T06:12:54.128Z,46.44
2023-05-10T06:15:26.359Z,45.74
2023-05-10T06:18:00.881Z,46.43
2023-05-10T06:20:32.766Z,46.41
2023-05-10T06:23:06.948Z,45.86
2023-05-10T06:25:39.994Z,45.26
2023-05-10T06:28:11.777Z,44.02
2023-05-10T06:30:46.606Z,43.84
2023-05-10T06:33:18.449Z,43.38
2023-05-10T06:35:50.344Z,43.00
2023-05-10T06:38:24.991Z,43.45
2023-05-10T06:40:56.810Z,42.73
2023-05-10T06:43:29.794Z,41.92
2023-05-10T06:46:01.820Z,40.89
2023-05-10T06:48:33.665Z,40.62
2023-05-10T06:51:05.441Z,40.03
2023-05-10T06:53:37.176Z,39.67
2023-05-10T06:56:09.150Z,39.79
2023-05-10T06:58:40.949Z,40.06
2023-05-10T07:01:12.969Z,39.78
2023-05-10T07:03:44.834Z,39.37
2023-05-10T07:06:29.470Z,39.58
2023-05-10T07:09:05.812Z,39.70
2023-05-10T07:11:38.519Z,39.52
2023-05-10T07:14:10.598Z,38.57
2023-05-10T07:16:42.460Z,38.15
2023-05-10T07:19:14.320Z,37.93
2023-05-10T07:21:48.072Z,37.98
2023-05-10T07:24:19.953Z,37.41
2023-05-10T07:26:51.741Z,37.20
2023-05-10T07:29:23.443Z,36.53
2023-05-10T07:31:58.912Z,36.86
2023-05-10T07:34:31.535Z,36.57
2023-05-10T07:37:03.541Z,36.23
2023-05-10T07:39:35.322Z,35.68
2023-05-10T07:42:07.050Z,35.58
2023-05-10T07:44:38.796Z,35.18
2023-05-10T07:47:10.784Z,34.81
2023-05-10T07:49:42.478Z,34.69
2023-05-10T07:52:14.830Z,34.45
2023-05-10T07:54:47.081Z,34.39
2023-05-10T07:57:19.245Z,34.08
2023-05-10T07:59:51.236Z,34.26
2023-05-10T08:02:23.070Z,34.78
2023-05-10T08:04:55.019Z,34.49
2023-05-10T08:07:26.785Z,34.15
2023-05-10T08:10:00.005Z,33.62
2023-05-10T08:12:32.872Z,33.44
2023-05-10T08:15:05.168Z,33.42
2023-05-10T08:17:37.044Z,34.05
2023-05-10T08:20:10.230Z,33.12
2023-05-10T08:22:41.988Z,33.32
2023-05-10T08:25:13.764Z,33.03
2023-05-10T08:27:45.779Z,32.36
2023-05-10T08:30:17.625Z,31.62
2023-05-10T08:32:49.406Z,31.61
2023-05-10T08:35:21.248Z,31.57
2023-05-10T08:37:53.092Z,31.24
2023-05-10T08:40:27.146Z,31.18
2023-05-10T08:43:07.513Z,31.80
2023-05-10T08:45:46.344Z,31.74
2023-05-10T08:48:18.716Z,31.35
2023-05-10T08:50:54.074Z,29.95
2023-05-10T08:53:32.741Z,29.72
2023-05-10T08:56:05.134Z,29.00
2023-05-10T08:58:37.827Z,29.44
2023-05-10T09:01:13.704Z,29.44
2023-05-10T09:03:47.542Z,29.49
2023-05-10T09:06:19.764Z,29.18
2023-05-10T09:08:51.832Z,29.80
2023-05-10T09:11:23.908Z,29.80
2023-05-10T09:13:56.408Z,29.97
2023-05-10T09:16:28.618Z,29.76
2023-05-10T09:19:00.471Z,29.97
2023-05-10T09:21:32.460Z,29.06
2023-05-10T09:24:08.991Z,28.99
2023-05-10T09:26:49.422Z,28.98
2023-05-10T09:29:21.697Z,29.58
2023-05-10T09:31:55.612Z,29.57
2023-05-10T09:34:32.850Z,29.14
2023-05-10T09:37:05.542Z,29.39
2023-05-10T09:39:38.705Z,29.06
2023-05-10T09:42:12.478Z,28.32
2023-05-10T09:44:44.544Z,28.69
2023-05-10T09:47:22.107Z,29.47
2023-05-10T09:49:56.683Z,29.48
2023-05-10T09:52:28.457Z,30.01
2023-05-10T09:55:00.400Z,29.28
2023-05-10T09:57:34.549Z,29.58
2023-05-10T10:00:14.227Z,29.45
2023-05-10T10:02:47.853Z,29.39
2023-05-10T10:05:19.796Z,29.09
2023-05-10T10:07:51.598Z,28.47
2023-05-10T10:10:23.643Z,28.70
2023-05-10T10:12:56.348Z,29.27
2023-05-10T10:15:28.500Z,29.47
2023-05-10T10:18:05.159Z,29.18
2023-05-10T10:20:38.577Z,29.79
2023-05-10T10:23:10.739Z,30.12
2023-05-10T10:25:43.061Z,29.53
2023-05-10T10:28:28.469Z,29.57
2023-05-10T10:31:13.748Z,29.20
2023-05-10T10:34:08.830Z,30.10
2023-05-10T10:36:46.012Z,29.78
2023-05-10T10:39:18.003Z,29.13
2023-05-10T10:42:00.129Z,29.04
2023-05-10T10:44:33.091Z,29.33
2023-05-10T10:47:24.000Z,29.51
2023-05-10T10:50:02.039Z,29.23
2023-05-10T10:52:38.778Z,29.31
2023-05-10T10:55:23.305Z,29.76
2023-05-10T10:58:01.601Z,30.21
2023-05-10T11:00:36.658Z,30.46
2023-05-10T11:03:15.800Z,29.88
2023-05-10T11:05:49.543Z,30.28
2023-05-10T11:08:38.204Z,30.87
2023-05-10T11:11:10.212Z,31.39
2023-05-10T11:13:50.837Z,31.87
2023-05-10T11:16:25.659Z,31.14
2023-05-10T11:19:12.733Z,30.34
2023-05-10T11:21:50.650Z,30.30
2023-05-10T11:24:27.955Z,29.89
2023-05-10T11:27:00.540Z,30.08
2023-05-10T11:29:32.416Z,29.63
2023-05-10T11:32:09.134Z,29.73
2023-05-10T11:34:40.934Z,29.74
2023-05-10T11:37:12.772Z,29.26
2023-05-10T11:39:50.592Z,29.24
2023-05-10T11:42:22.478Z,29.77
2023-05-10T11:44:54.501Z,29.03
2023-05-10T11:47:26.590Z,29.24
2023-05-10T11:49:58.625Z,29.19
2023-05-10T11:52:30.376Z,28.97
2023-05-10T11:55:02.163Z,28.68
2023-05-10T11:57:33.941Z,28.86
2023-05-10T12:00:07.008Z,28.74
2023-05-10T12:02:39.753Z,28.56
2023-05-10T12:05:12.017Z,29.15
2023-05-10T12:07:44.073Z,29.18
2023-05-10T12:10:16.609Z,29.84
2023-05-10T12:12:49.217Z,29.99
2023-05-10T12:15:26.014Z,30.40
2023-05-10T12:17:58.106Z,30.50
2023-05-10T12:20:30.628Z,30.51
2023-05-10T12:23:04.353Z,30.48
2023-05-10T12:25:40.249Z,30.87
2023-05-10T12:28:12.064Z,31.02
2023-05-10T12:30:46.642Z,31.14
2023-05-10T12:33:19.031Z,31.44
2023-05-10T12:35:55.704Z,32.01
2023-05-10T12:38:34.195Z,32.64
2023-05-10T12:41:08.746Z,33.03
2023-05-10T12:43:42.761Z,33.05
2023-05-10T12:46:17.810Z,33.03
2023-05-10T12:49:07.831Z,33.07
2023-05-10T12:51:40.856Z,33.01
2023-05-10T12:54:12.955Z,33.38
2023-05-10T12:56:44.691Z,33.76
2023-05-10T12:59:16.402Z,34.11
2023-05-10T13:01:49.024Z,34.30
2023-05-10T13:04:21.153Z,34.39
2023-05-10T13:06:53.148Z,34.27
2023-05-10T13:09:26.044Z,34.37
2023-05-10T13:11:58.019Z,34.41
2023-05-10T13:14:30.557Z,34.61
2023-05-10T13:17:02.355Z,34.50
2023-05-10T13:19:36.310Z,34.21
2023-05-10T13:22:08.002Z,34.15
2023-05-10T13:24:39.875Z,34.19
2023-05-10T13:27:12.128Z,34.48
2023-05-10T13:29:49.178Z,34.27
2023-05-10T13:32:21.833Z,34.40
2023-05-10T13:34:53.647Z,34.15
2023-05-10T13:37:29.771Z,34.46
2023-05-10T13:40:02.112Z,34.42
2023-05-10T13:42:34.576Z,34.50
2023-05-10T13:45:07.001Z,34.03
2023-05-10T13:47:39.028Z,33.96
2023-05-10T13:50:11.094Z,34.26
2023-05-10T13:52:42.929Z,34.05
2023-05-10T13:55:14.753Z,33.71
2023-05-10T13:57:46.861Z,34.10
2023-05-10T14:00:18.871Z,34.30
2023-05-10T14:02:50.710Z,34.12
2023-05-10T14:05:25.854Z,34.32
2023-05-10T14:07:58.233Z,34.14
2023-05-10T14:10:29.985Z,34.21
2023-05-10T14:13:02.366Z,34.28
2023-05-10T14:15:34.087Z,34.73
2023-05-10T14:18:06.407Z,34.80
2023-05-10T14:20:38.357Z,34.88
2023-05-10T14:23:11.894Z,35.18
2023-05-10T14:25:44.346Z,34.97
2023-05-10T14:28:17.007Z,34.99
2023-05-10T14:30:48.876Z,35.15
2023-05-10T14:33:21.502Z,35.33
2023-05-10T14:35:53.769Z,35.41
2023-05-10T14:38:25.512Z,35.34
2023-05-10T14:40:57.378Z,35.32
2023-05-10T14:43:29.171Z,35.48
2023-05-10T14:46:01.059Z,35.59
2023-05-10T14:48:32.829Z,35.45
2023-05-10T14:51:04.704Z,35.19
2023-05-10T14:53:36.613Z,35.44
2023-05-10T14:56:08.749Z,35.81
2023-05-10T14:58:40.466Z,36.11
2023-05-10T15:01:12.584Z,36.16
2023-05-10T15:03:47.559Z,35.96
2023-05-10T15:06:25.885Z,36.06
2023-05-10T15:08:58.241Z,36.40
2023-05-10T15:11:30.412Z,36.50
2023-05-10T15:14:02.965Z,36.45
2023-05-10T15:16:36.249Z,36.15
2023-05-10T15:19:08.299Z,36.53
2023-05-10T15:21:42.644Z,36.24
2023-05-10T15:24:14.442Z,36.34
2023-05-10T15:26:46.186Z,36.29
2023-05-10T15:29:21.026Z,36.33
2023-05-10T15:31:53.053Z,36.48
2023-05-10T15:34:29.170Z,36.48
2023-05-10T15:37:01.347Z,36.42
2023-05-10T15:39:33.085Z,36.62
2023-05-10T15:42:05.418Z,36.63
2023-05-10T15:44:39.400Z,36.38
2023-05-10T15:47:11.464Z,36.28
2023-05-10T15:49:43.225Z,36.25
2023-05-10T15:52:15.424Z,36.17
2023-05-10T15:54:47.380Z,37.44
2023-05-10T15:57:19.207Z,36.57
2023-05-10T15:59:51.282Z,38.38
2023-05-10T16:02:23.561Z,39.25
2023-05-10T16:04:55.463Z,39.90
2023-05-10T16:07:27.426Z,40.15
2023-05-10T16:09:59.267Z,40.67
2023-05-10T16:12:31.481Z,41.30
2023-05-10T16:15:03.520Z,41.13
2023-05-10T16:17:35.334Z,41.92
2023-05-10T16:20:11.629Z,42.41
2023-05-10T16:22:44.475Z,42.47
2023-05-10T16:25:16.615Z,42.48
2023-05-10T16:27:48.549Z,42.41
2023-05-10T16:30:21.757Z,42.10
2023-05-10T16:32:59.755Z,41.46
2023-05-10T16:35:31.740Z,41.14
2023-05-10T16:38:04.041Z,41.05
2023-05-10T16:40:35.892Z,41.13
2023-05-10T16:43:07.832Z,41.27
2023-05-10T16:45:39.888Z,40.91
2023-05-10T16:48:11.619Z,40.69
2023-05-10T16:50:44.549Z,40.74
2023-05-10T16:53:16.364Z,40.93
2023-05-10T16:55:48.114Z,40.77
2023-05-10T16:58:19.895Z,40.47
2023-05-10T17:00:51.756Z,41.64
2023-05-10T17:03:25.221Z,42.27
2023-05-10T17:05:57.088Z,42.61
2023-05-10T17:08:28.831Z,42.32
2023-05-10T17:11:04.533Z,41.66
2023-05-10T17:13:36.324Z,41.80
2023-05-10T17:16:08.454Z,41.59
2023-05-10T17:18:41.740Z,41.49
2023-05-10T17:21:13.561Z,41.30
2023-05-10T17:23:45.405Z,41.61
2023-05-10T17:26:17.362Z,41.53
2023-05-10T17:28:49.070Z,41.57
2023-05-10T17:31:20.844Z,42.13
2023-05-10T17:33:52.865Z,41.97
2023-05-10T17:36:24.873Z,42.44
2023-05-10T17:38:56.824Z,42.50
2023-05-10T17:41:29.001Z,42.33
2023-05-10T17:44:00.670Z,42.11
2023-05-10T17:46:33.002Z,42.27
2023-05-10T17:49:04.695Z,42.87
2023-05-10T17:51:36.400Z,43.45
2023-05-10T17:54:08.132Z,42.94
2023-05-10T17:56:39.869Z,44.38
2023-05-10T17:59:11.558Z,44.93
2023-05-10T18:01:43.432Z,45.21
2023-05-10T18:04:15.230Z,46.20
2023-05-10T18:06:49.574Z,46.17
2023-05-10T18:09:21.404Z,47.01
2023-05-10T18:11:53.088Z,47.37
2023-05-10T18:14:38.925Z,48.17
2023-05-10T18:17:12.648Z,48.13
2023-05-10T18:19:44.521Z,48.01
2023-05-10T18:22:16.701Z,48.65
2023-05-10T18:24:49.649Z,48.71
2023-05-10T18:27:21.572Z,48.69
2023-05-10T18:29:53.361Z,48.75
2023-05-10T18:32:25.313Z,49.39
2023-05-10T18:34:57.599Z,49.74
2023-05-10T18:37:29.550Z,49.74
2023-05-10T18:40:01.288Z,49.77
2023-05-10T18:42:33.092Z,50.44
2023-05-10T18:45:06.051Z,50.36
2023-05-10T18:47:37.867Z,50.78
2023-05-10T18:50:10.312Z,50.63
2023-05-10T18:52:43.200Z,51.12
2023-05-10T18:55:15.115Z,51.32
2023-05-10T18:57:47.123Z,51.79
2023-05-10T19:00:20.520Z,51.84
2023-05-10T19:02:53.663Z,51.97
2023-05-10T19:05:30.019Z,52.24
2023-05-10T19:08:04.498Z,52.19
2023-05-10T19:10:36.303Z,52.09
2023-05-10T19:13:08.514Z,52.53
2023-05-10T19:15:41.836Z,52.51
2023-05-10T19:18:14.422Z,52.65
2023-05-10T19:20:46.577Z,53.05
2023-05-10T19:23:18.582Z,53.20
2023-05-10T19:25:53.453Z,53.23
2023-05-10T19:28:29.123Z,53.40
2023-05-10T19:31:02.375Z,53.75
2023-05-10T19:33:40.983Z,53.73
2023-05-10T19:36:14.849Z,54.17
2023-05-10T19:38:46.944Z,53.99
2023-05-10T19:41:18.804Z,54.48
2023-05-10T19:43:51.862Z,54.63
2023-05-10T19:46:23.929Z,54.79
2023-05-10T19:48:55.909Z,54.85
2023-05-10T19:51:28.145Z,54.78
2023-05-10T19:54:03.843Z,54.81
2023-05-10T19:56:35.668Z,54.85
2023-05-10T19:59:08.093Z,54.92
2023-05-10T20:01:39.948Z,54.89
2023-05-10T20:04:12.305Z,54.93
2023-05-10T20:06:44.066Z,54.71
2023-05-10T20:09:16.204Z,54.75
2023-05-10T20:11:49.137Z,55.79
2023-05-10T20:14:20.914Z,56.17
2023-05-10T20:16:52.703Z,56.48
2023-05-10T20:19:25.101Z,56.68
2023-05-10T20:21:58.609Z,56.54
2023-05-10T20:24:30.368Z,56.31
2023-05-10T20:27:02.690Z,56.37
2023-05-10T20:29:34.506Z,56.45
2023-05-10T20:32:06.549Z,56.66
2023-05-10T20:34:38.442Z,57.07
2023-05-10T20:37:11.294Z,56.71
2023-05-10T20:39:43.354Z,57.19
2023-05-10T20:42:15.115Z,57.06
2023-05-10T20:44:46.921Z,57.28
2023-05-10T20:47:18.888Z,56.96
2023-05-10T20:49:51.068Z,57.49
2023-05-10T20:52:24.520Z,57.50
2023-05-10T20:54:56.490Z,57.22
2023-05-10T20:57:28.160Z,57.23
2023-05-10T21:00:00.048Z,57.50
2023-05-10T21:02:31.885Z,57.77
2023-05-10T21:05:03.883Z,57.72
2023-05-10T21:07:35.869Z,57.81
2023-05-10T21:10:08.410Z,57.95
2023-05-10T21:12:40.106Z,57.97
2023-05-10T21:15:12.028Z,58.17
2023-05-10T21:17:45.379Z,58.14
2023-05-10T21:20:17.409Z,58.11
2023-05-10T21:22:49.363Z,58.30
2023-05-10T21:25:23.166Z,58.31
2023-05-10T21:27:54.928Z,57.87
2023-05-10T21:30:26.883Z,58.03
2023-05-10T21:32:59.843Z,57.93
2023-05-10T21:35:31.926Z,58.14
2023-05-10T21:38:03.647Z,57.93
2023-05-10T21:40:36.063Z,58.36
2023-05-10T21:43:08.260Z,58.38
2023-05-10T21:45:40.792Z,58.32
2023-05-10T21:48:13.328Z,58.58
2023-05-10T21:50:45.306Z,58.61
2023-05-10T21:53:17.112Z,58.49
2023-05-10T21:55:50.994Z,58.60
2023-05-10T21:58:23.853Z,58.13
2023-05-10T22:00:56.249Z,58.10
2023-05-10T22:03:28.348Z,57.95
2023-05-10T22:06:00.146Z,58.55
2023-05-10T22:08:32.184Z,58.23
2023-05-10T22:11:04.005Z,58.45
2023-05-10T22:13:35.874Z,58.51
2023-05-10T22:16:10.624Z,58.38
2023-05-10T22:18:43.749Z,58.10
2023-05-10T22:21:17.647Z,58.31
2023-05-10T22:23:49.387Z,57.77
2023-05-10T22:26:22.722Z,57.83
2023-05-10T22:28:57.039Z,57.41
2023-05-10T22:31:29.134Z,57.11
2023-05-10T22:34:00.913Z,56.92
2023-05-10T22:36:33.102Z,56.65
2023-05-10T22:39:05.043Z,56.39
2023-05-10T22:41:37.213Z,56.25
2023-05-10T22:44:09.024Z,56.05
2023-05-10T22:46:42.870Z,55.70
2023-05-10T22:49:14.625Z,55.60
2023-05-10T22:51:46.711Z,55.47
2023-05-10T22:54:18.484Z,55.15
2023-05-10T22:56:51.121Z,55.24
2023-05-10T22:59:28.334Z,54.81
2023-05-10T23:02:00.211Z,54.74
2023-05-10T23:04:32.816Z,54.61
2023-05-10T23:07:04.909Z,54.69
2023-05-10T23:09:36.858Z,54.56
2023-05-10T23:12:08.825Z,54.68
2023-05-10T23:14:41.724Z,54.64
2023-05-10T23:17:13.866Z,54.64
2023-05-10T23:19:45.566Z,54.25
2023-05-10T23:22:17.562Z,54.30
2023-05-10T23:24:49.302Z,54.10
2023-05-10T23:27:21.278Z,53.93
2023-05-10T23:29:55.701Z,53.83
2023-05-10T23:32:28.941Z,53.77
2023-05-10T23:35:07.152Z,53.63
2023-05-10T23:37:41.473Z,53.59
2023-05-10T23:40:14.187Z,53.60
2023-05-10T23:42:46.038Z,53.56
2023-05-10T23:45:17.808Z,53.37
2023-05-10T23:47:49.675Z,53.31
2023-05-10T23:50:21.542Z,53.36
2023-05-10T23:52:53.396Z,53.13
2023-05-10T23:55:25.320Z,53.12
2023-05-10T23:57:57.180Z,53.00
